Jennerstown, PA (15547)

8:55 AM EDT on September 01, 2014 (GMT -0400)
Stoystown | Change Station
CLOSE
Current Station
Personal Weather Station
Location: Stoystown, PA
Elevation: 2172 ft
Nearby Weather Stations

Elev 2172 ft 40.11 °N, 78.94 °W | Updated 2 seconds ago

Mostly Cloudy
Mostly Cloudy
69.6 °F
Feels Like 69.6 °F
N
2.2
Wind Variable Wind from NW
Gusts 5.4 mph

Today
High -- | Low -- °F
--% Chance of Precip.
Yesterday
High -- | Low -- °F
Precip. -- in
6:43 AM 7:47 PM
Waxing Crescent, 40% visible
Pressure 30.09 in
Visibility 3.0 miles
Clouds Mostly Cloudy 300 ft
Overcast 800 ft
Dew Point 64 °F
Humidity 82%
Rainfall 0.07 in
Snow Depth Not available.
UV 1 out of 12
Pollen 6.70 out of 12
Ozone Good
PM2.5 Good
Flu Activity Not available.
SPECI KJST 011246Z AUTO 25004KT 3SM BR BKN003 OVC008 20/19 A3009 RMK AO2 RAE08B29E38 P0000 T02000194

More Conditions Fewer Conditions

Pressure 30.09 in
Visibility 3.0 miles
Clouds Mostly Cloudy 300 ft
Overcast 800 ft
Dew Point 64 °F
Humidity 82%
Rainfall 0.07 in
Snow Depth Not available.
UV 1 out of 12
Pollen 6.70 out of 12
Ozone Good
PM2.5 Good
Flu Activity Not available.
SPECI KJST 011246Z AUTO 25004KT 3SM BR BKN003 OVC008 20/19 A3009 RMK AO2 RAE08B29E38 P0000 T02000194

More Conditions Fewer Conditions

Nowcast | as of 6:17 am EDT on September 1, 2014

Widely scattered showers and thunderstorms will be across south central Pennsylvania through 930 am. Most of the activity will be south of an Ebensburg...Mount Union...Harrisburg line. A brief heavy downpour will be possible. The shower and storms are moving northeast at 15 mph.

×

10-Day Weather Forecast

Almanac

Astronomy

Sep. 01, 2014 Rise Set
Actual Time 6:43 AM EDT 7:47 PM EDT
Civil Twilight 6:15 AM EDT 8:15 PM EDT
Nautical Twilight 5:42 AM EDT 8:48 PM EDT
Astronomical Twilight 5:08 AM EDT 9:23 PM EDT
Moon 1:28 PM EDT 11:47 PM EDT
Length of Visible Light 13h 59m
Length of Day
13h 04m
Tomorrow will be 2m 33s shorter.
Waxing Crescent, 40% of the Moon is Illuminated
Today
Waxing Crescent
Sep 2
First Quarter
Sep 8
Full
Sep 15
Last Quarter
Sep 24
New

Today's Extremes

State Highs State Lows

Community

WunderPhotos

Upload Photos

1,749,199 photos uploaded!

Nearby

Air Quality

  Air Quality AQ Index Pollutant
Yesterday Good
PM2.5
Yesterday Good
OZONE
Current Good
PM2.5
Current Good
OZONE
Monday Moderate
PM2.5
Monday Good
OZONE
Tuesday Moderate
PM2.5
Tuesday Good
OZONE
Wednesday Good
PM2.5
Wednesday Good
OZONE

Snow Depth

Station Depth Elevation
No new snow has been reported.

Earthquake Activity

City Distance Mag. Time & Date
No recent earthquake activity has been reported nearby.
Minimum magnitude displayed is 2.5.

Coastal Water Temperatures

Place Temperature
No Stations Reporting

Nearby Weather Stations